Time;durP1;ratioP1;P1;durP2;ratioP2;P2;SDS_P1;SDS_P2;PMS_P1;PMS_P2;Temp;Humidity;BMP_temperature;BMP_pressure;BME280_temperature;BME280_humidity;BME280_pressure;Samples;Min_cycle;Max_cycle;Signal;HPM_P1;HPM_P2
2023/07/30 00:00:43;;;;;;;26.10;16.20;;;;;;;21.66;65.92;94663.16;4982684;28;20185;-80
2023/07/30 00:03:09;;;;;;;15.05;7.97;;;;;;;21.75;66.32;94679.41;4981980;28;20205;-79
2023/07/30 00:05:34;;;;;;;17.13;10.93;;;;;;;21.74;65.87;94691.19;4983359;28;20628;-79
2023/07/30 00:08:00;;;;;;;20.80;12.93;;;;;;;21.76;66.03;94686.38;4985039;28;20166;-79
2023/07/30 00:10:25;;;;;;;10.93;8.20;;;;;;;21.43;66.73;94675.44;4959230;28;20428;-79
2023/07/30 00:12:50;;;;;;;21.23;13.60;;;;;;;21.16;67.70;94650.22;4982503;28;20449;-79
2023/07/30 00:15:16;;;;;;;16.17;10.30;;;;;;;21.39;67.72;94673.59;4980814;28;20177;-79
2023/07/30 00:17:41;;;;;;;20.65;12.88;;;;;;;21.50;67.48;94677.00;4983514;28;20561;-80
2023/07/30 00:20:08;;;;;;;14.33;8.73;;;;;;;21.34;67.47;94653.03;4979794;28;20892;-79
2023/07/30 00:22:33;;;;;;;14.70;10.02;;;;;;;21.57;67.16;94680.94;4974483;28;20208;-79
2023/07/30 00:24:58;;;;;;;9.77;5.80;;;;;;;21.46;67.16;94658.00;4994124;28;20173;-80
2023/07/30 00:27:24;;;;;;;6.38;5.07;;;;;;;21.57;66.61;94672.09;4993865;28;20157;-80
2023/07/30 00:29:49;;;;;;;7.68;5.28;;;;;;;21.43;66.59;94640.63;4987772;28;20232;-79
2023/07/30 00:32:16;;;;;;;9.20;4.85;;;;;;;21.61;66.63;94673.94;4984389;28;21031;-79
2023/07/30 00:34:42;;;;;;;12.45;5.93;;;;;;;21.58;66.67;94663.78;4984210;28;20260;-79
2023/07/30 00:37:07;;;;;;;5.97;4.38;;;;;;;21.56;66.90;94663.25;4982696;28;20280;-79
2023/07/30 00:39:32;;;;;;;8.75;4.30;;;;;;;21.53;66.64;94665.72;4979515;28;20212;-79
2023/07/30 00:41:58;;;;;;;5.05;3.67;;;;;;;21.45;67.22;94661.75;4979269;28;20185;-79
2023/07/30 00:44:23;;;;;;;7.63;3.90;;;;;;;21.39;67.57;94663.69;4983046;28;20209;-79
2023/07/30 00:46:49;;;;;;;7.50;3.67;;;;;;;21.24;67.72;94653.13;4978936;28;20177;-79
2023/07/30 00:49:14;;;;;;;6.75;3.38;;;;;;;21.26;67.39;94650.19;4965648;28;20248;-79
2023/07/30 00:51:40;;;;;;;5.15;3.60;;;;;;;21.34;67.38;94668.31;4965031;28;20497;-79
2023/07/30 00:54:06;;;;;;;3.85;3.33;;;;;;;21.21;67.70;94651.00;4981354;28;20192;-79
2023/07/30 00:56:32;;;;;;;5.43;3.08;;;;;;;21.26;67.46;94653.66;4983149;28;20173;-79
2023/07/30 00:58:57;;;;;;;5.68;2.92;;;;;;;21.27;67.32;94660.59;4982376;28;20173;-79
2023/07/30 01:01:23;;;;;;;6.23;4.20;;;;;;;21.09;68.01;94643.34;4979184;28;20424;-79
2023/07/30 01:03:49;;;;;;;6.63;3.20;;;;;;;21.04;68.25;94637.22;4980748;28;20449;-79
2023/07/30 01:06:15;;;;;;;5.38;3.55;;;;;;;21.18;68.14;94658.81;4982446;28;20178;-79
2023/07/30 01:08:40;;;;;;;6.57;2.78;;;;;;;21.10;68.18;94657.53;4981691;28;20174;-79
2023/07/30 01:11:08;;;;;;;7.22;3.60;;;;;;;21.21;67.74;94672.44;4980403;28;20232;-79
2023/07/30 01:13:35;;;;;;;6.93;3.47;;;;;;;21.19;67.40;94671.91;4982466;28;20308;-79
2023/07/30 01:16:01;;;;;;;9.38;3.75;;;;;;;21.16;67.84;94677.00;4984148;28;20181;-79
2023/07/30 01:18:26;;;;;;;3.83;3.28;;;;;;;21.07;68.07;94663.44;4982902;28;20177;-79
2023/07/30 01:20:58;;;;;;;4.82;3.22;;;;;;;20.91;67.83;94646.69;4982207;28;20161;-79
2023/07/30 01:23:24;;;;;;;6.53;3.00;;;;;;;21.07;68.12;94676.81;4983783;28;20205;-79
2023/07/30 01:25:59;;;;;;;7.97;3.28;;;;;;;20.90;67.78;94657.69;4981356;28;20280;-79
2023/07/30 01:28:26;;;;;;;6.20;3.05;;;;;;;20.95;68.03;94671.00;4981248;28;20169;-79
2023/07/30 01:30:52;;;;;;;4.55;3.35;;;;;;;20.70;68.28;94654.06;4975028;28;20180;-79
2023/07/30 01:33:18;;;;;;;5.38;2.72;;;;;;;20.75;68.70;94671.19;4982381;28;20181;-79
2023/07/30 01:35:44;;;;;;;7.07;3.00;;;;;;;20.41;68.66;94631.78;4982105;28;20184;-79
2023/07/30 01:38:10;;;;;;;7.65;2.63;;;;;;;20.48;69.19;94652.91;4964400;28;20652;-79
2023/07/30 01:40:36;;;;;;;5.90;3.65;;;;;;;20.62;69.13;94681.41;4979651;28;20173;-79
2023/07/30 01:43:01;;;;;;;8.18;3.05;;;;;;;20.56;68.98;94663.81;4979871;28;20196;-79
2023/07/30 01:45:27;;;;;;;3.80;2.58;;;;;;;20.61;69.56;94663.75;4982165;28;20605;-79
2023/07/30 01:47:52;;;;;;;4.40;2.60;;;;;;;20.70;68.92;94672.00;4978483;28;20166;-79
2023/07/30 01:50:18;;;;;;;2.95;2.60;;;;;;;20.70;68.92;94678.16;4981981;28;21003;-79
2023/07/30 01:52:43;;;;;;;8.18;3.17;;;;;;;20.62;68.96;94662.69;4981082;28;20172;-79
2023/07/30 01:55:09;;;;;;;7.03;2.70;;;;;;;20.67;68.57;94684.03;4982809;28;20172;-79
2023/07/30 01:57:34;;;;;;;3.90;2.80;;;;;;;20.67;68.81;94684.03;4984383;28;20220;-79
2023/07/30 02:00:00;;;;;;;5.57;3.05;;;;;;;20.52;69.05;94661.94;4988973;28;20200;-79
2023/07/30 02:02:25;;;;;;;7.03;3.03;;;;;;;20.67;68.89;94684.03;4986661;28;20173;-79
2023/07/30 02:04:50;;;;;;;5.18;3.08;;;;;;;20.62;69.51;94678.75;4985772;28;20173;-79
2023/07/30 02:07:16;;;;;;;5.47;2.75;;;;;;;20.56;69.31;94671.03;4985686;28;20652;-80
2023/07/30 02:09:41;;;;;;;2.97;2.67;;;;;;;20.46;69.26;94650.50;4968320;28;20184;-80
2023/07/30 02:12:07;;;;;;;3.00;2.65;;;;;;;20.61;69.16;94671.78;4996394;28;20637;-80
2023/07/30 02:14:32;;;;;;;7.07;2.88;;;;;;;20.59;68.88;94662.44;4995369;28;20157;-80
2023/07/30 02:16:58;;;;;;;4.15;3.10;;;;;;;20.68;69.09;94682.97;4972350;28;20178;-79
2023/07/30 02:19:23;;;;;;;4.00;2.70;;;;;;;20.69;69.00;94681.91;4988062;28;20259;-79
2023/07/30 02:21:49;;;;;;;9.30;3.25;;;;;;;20.62;69.01;94668.03;4986859;28;20177;-80
2023/07/30 02:24:14;;;;;;;8.88;2.65;;;;;;;20.68;69.01;94687.53;4980113;28;20197;-80
2023/07/30 02:26:39;;;;;;;4.72;3.00;;;;;;;20.66;68.61;94681.69;4976602;28;20269;-80
2023/07/30 02:29:05;;;;;;;4.93;3.15;;;;;;;20.67;68.87;94697.41;4986675;28;20174;-80
2023/07/30 02:31:30;;;;;;;4.35;3.00;;;;;;;20.57;68.75;94681.47;4988131;28;20664;-79
2023/07/30 02:33:56;;;;;;;5.18;2.85;;;;;;;20.55;69.16;94680.13;4967749;28;20185;-79
2023/07/30 02:36:22;;;;;;;3.15;2.80;;;;;;;20.64;68.90;94695.31;4988189;28;20557;-79
2023/07/30 02:38:47;;;;;;;7.05;3.83;;;;;;;20.61;68.87;94695.06;4995979;28;20633;-80
2023/07/30 02:41:13;;;;;;;14.52;9.52;;;;;;;20.41;69.20;94671.13;4985107;28;20181;-80
2023/07/30 02:43:38;;;;;;;24.17;14.20;;;;;;;20.49;69.15;94695.44;4985890;28;20676;-80
2023/07/30 02:46:04;;;;;;;32.63;19.85;;;;;;;20.44;69.52;94695.44;4986956;28;20432;-79
2023/07/30 02:48:29;;;;;;;19.60;11.70;;;;;;;20.49;69.86;94697.28;4985703;28;21007;-79
2023/07/30 02:50:55;;;;;;;23.88;14.10;;;;;;;20.32;69.48;94671.66;4985455;28;20263;-79
2023/07/30 02:53:20;;;;;;;12.10;5.90;;;;;;;20.42;69.17;94686.06;4987858;28;20208;-79
2023/07/30 02:55:45;;;;;;;5.68;3.75;;;;;;;20.28;69.48;94681.31;4982523;28;20204;-79
2023/07/30 02:58:11;;;;;;;9.32;5.97;;;;;;;20.41;69.73;94698.66;4983586;28;20227;-79
2023/07/30 03:00:36;;;;;;;9.95;5.57;;;;;;;20.41;70.04;94700.56;4986387;28;20168;-79
2023/07/30 03:03:02;;;;;;;5.82;4.05;;;;;;;20.41;69.50;94703.22;4983527;28;20201;-79
2023/07/30 03:05:27;;;;;;;7.03;3.28;;;;;;;20.36;69.94;94703.22;4984759;28;20188;-79
2023/07/30 03:07:53;;;;;;;7.22;4.00;;;;;;;20.21;70.14;94680.03;4983604;28;20186;-79
2023/07/30 03:10:18;;;;;;;5.13;3.60;;;;;;;20.23;70.46;94697.41;4985137;28;20676;-78
2023/07/30 03:12:44;;;;;;;6.65;3.45;;;;;;;20.18;70.20;94694.72;4984766;28;20169;-79
2023/07/30 03:15:09;;;;;;;8.90;3.85;;;;;;;20.19;70.85;94693.66;4987567;28;20252;-79
2023/07/30 03:17:35;;;;;;;14.75;4.38;;;;;;;20.21;70.77;94704.88;4985647;28;20169;-80
2023/07/30 03:20:00;;;;;;;12.55;3.50;;;;;;;20.19;70.33;94704.34;4984254;28;20550;-80
2023/07/30 03:22:25;;;;;;;10.57;3.13;;;;;;;20.21;70.81;94704.09;4985215;28;20181;-80
2023/07/30 03:24:51;;;;;;;10.60;3.25;;;;;;;20.11;70.62;94688.09;4960143;28;20253;-80
2023/07/30 03:27:16;;;;;;;19.67;3.45;;;;;;;20.23;70.82;94701.94;4975433;28;20245;-80
2023/07/30 03:29:42;;;;;;;8.23;3.08;;;;;;;20.15;70.39;94679.22;4975588;28;20164;-80
2023/07/30 03:32:07;;;;;;;7.15;3.25;;;;;;;20.29;70.72;94700.84;4980730;28;20233;-80
2023/07/30 03:34:33;;;;;;;7.05;3.00;;;;;;;20.27;70.58;94702.97;4984452;28;20255;-81
2023/07/30 03:37:00;;;;;;;6.55;3.03;;;;;;;20.15;70.91;94683.81;4984275;28;20177;-81
2023/07/30 03:39:25;;;;;;;7.05;3.03;;;;;;;20.16;70.99;94685.38;4984878;28;20629;-81
2023/07/30 03:41:51;;;;;;;6.15;3.25;;;;;;;20.27;70.71;94711.81;4975499;28;20177;-82
2023/07/30 03:44:16;;;;;;;8.48;3.80;;;;;;;20.27;70.44;94709.13;4957828;28;20660;-82
2023/07/30 03:46:44;;;;;;;9.50;3.25;;;;;;;20.33;70.47;94707.22;4975198;28;20220;-82
2023/07/30 03:49:09;;;;;;;12.15;3.55;;;;;;;20.36;70.72;94708.59;4974792;28;20234;-82
2023/07/30 03:51:35;;;;;;;11.20;3.30;;;;;;;20.40;70.39;94696.28;4975154;28;20177;-82
2023/07/30 03:54:00;;;;;;;7.40;3.85;;;;;;;20.48;69.88;94712.53;4975085;28;20555;-82
2023/07/30 03:56:26;;;;;;;9.27;3.60;;;;;;;20.50;69.69;94704.22;4981049;28;20562;-81
2023/07/30 03:58:51;;;;;;;10.48;5.47;;;;;;;20.67;69.35;94721.50;4983673;28;20177;-81
2023/07/30 04:01:16;;;;;;;16.02;7.45;;;;;;;20.68;69.00;94704.38;4982341;28;20173;-81
2023/07/30 04:03:42;;;;;;;8.65;4.80;;;;;;;20.85;68.37;94725.41;4985305;28;20566;-81
2023/07/30 04:06:07;;;;;;;13.77;7.18;;;;;;;20.76;68.60;94694.19;4994417;28;20245;-81
2023/07/30 04:08:32;;;;;;;15.38;6.85;;;;;;;21.03;68.56;94721.25;4994395;28;20957;-81
2023/07/30 04:10:58;;;;;;;21.38;13.73;;;;;;;20.91;68.16;94675.34;4993937;28;20648;-81
2023/07/30 04:13:23;;;;;;;7.45;4.38;;;;;;;21.25;67.39;94729.72;4994197;28;20193;-81
2023/07/30 04:15:49;;;;;;;16.00;6.53;;;;;;;21.15;66.85;94694.94;4993624;28;20888;-77
2023/07/30 04:18:14;;;;;;;9.90;5.00;;;;;;;21.47;67.37;94731.91;4989120;28;20205;-77
2023/07/30 04:20:39;;;;;;;12.40;5.43;;;;;;;21.59;66.34;94732.34;4985663;28;20555;-78
2023/07/30 04:23:05;;;;;;;14.90;7.55;;;;;;;21.68;66.12;94716.47;4983193;28;20197;-78
2023/07/30 04:25:30;;;;;;;22.63;13.75;;;;;;;21.87;65.69;94727.25;4986081;28;20205;-78
2023/07/30 04:27:56;;;;;;;20.60;13.05;;;;;;;21.81;64.20;94705.84;4983279;28;20268;-78
2023/07/30 04:30:21;;;;;;;9.35;6.20;;;;;;;22.16;65.84;94731.50;4981450;28;20184;-78
2023/07/30 04:32:46;;;;;;;7.72;5.63;;;;;;;22.38;63.78;94728.31;4982896;28;20173;-78
2023/07/30 04:35:12;;;;;;;12.90;7.38;;;;;;;22.63;62.74;94731.75;4986082;28;20196;-78
2023/07/30 04:37:37;;;;;;;5.05;3.38;;;;;;;22.84;62.40;94723.13;4983502;28;20560;-78
2023/07/30 04:40:03;;;;;;;5.22;2.80;;;;;;;23.11;59.66;94730.53;4982476;28;20177;-78
2023/07/30 04:42:28;;;;;;;5.72;3.17;;;;;;;23.42;60.21;94743.47;4981910;28;20177;-76
2023/07/30 04:44:54;;;;;;;4.70;3.13;;;;;;;23.73;59.38;94733.03;4980591;28;20181;-77
2023/07/30 04:47:19;;;;;;;5.82;3.00;;;;;;;24.05;57.46;94738.34;4984642;28;20189;-77
2023/07/30 04:49:45;;;;;;;7.97;3.90;;;;;;;24.42;55.77;94740.88;4981473;28;20304;-76
2023/07/30 04:52:10;;;;;;;6.78;3.63;;;;;;;24.79;55.73;94737.16;4980464;28;20292;-77
2023/07/30 04:54:38;;;;;;;6.50;3.00;;;;;;;25.36;54.29;94747.47;4974097;28;20181;-77
2023/07/30 04:57:05;;;;;;;8.63;3.83;;;;;;;25.80;54.25;94742.06;4981422;28;20204;-76
2023/07/30 04:59:30;;;;;;;5.25;3.20;;;;;;;26.26;53.07;94740.88;4977637;28;20178;-77
2023/07/30 05:01:58;;;;;;;6.65;3.78;;;;;;;26.66;51.83;94750.53;4979290;28;20182;-77
2023/07/30 05:04:23;;;;;;;7.00;3.92;;;;;;;27.05;50.52;94748.88;4977104;28;20200;-77
2023/07/30 05:06:49;;;;;;;12.73;8.85;;;;;;;27.45;49.73;94751.41;4963163;28;20182;-77
2023/07/30 05:09:14;;;;;;;10.48;8.10;;;;;;;27.86;49.02;94750.91;4978447;28;20723;-77
2023/07/30 05:11:40;;;;;;;5.63;3.60;;;;;;;28.25;48.43;94739.84;4982793;28;20170;-77
2023/07/30 05:14:05;;;;;;;7.45;3.88;;;;;;;28.68;47.03;94741.53;4980714;28;20216;-78
2023/07/30 05:16:30;;;;;;;8.10;4.53;;;;;;;29.03;45.18;94729.38;4985272;28;20176;-80
2023/07/30 05:18:56;;;;;;;12.07;7.35;;;;;;;29.63;44.46;94745.19;4983793;28;20177;-78
2023/07/30 05:21:21;;;;;;;5.65;3.80;;;;;;;29.86;43.34;94698.63;4982552;28;20937;-81
2023/07/30 05:23:47;;;;;;;11.30;7.00;;;;;;;30.60;41.83;94733.75;4975891;28;20573;-81
2023/07/30 05:26:12;;;;;;;9.10;6.57;;;;;;;30.88;41.51;94724.84;4973537;28;20240;-78
2023/07/30 05:28:37;;;;;;;7.80;3.35;;;;;;;31.50;40.73;94744.22;4983404;28;20671;-81
2023/07/30 05:31:03;;;;;;;9.93;6.70;;;;;;;32.08;38.98;94738.44;4984912;28;20183;-80
2023/07/30 05:33:28;;;;;;;5.43;3.45;;;;;;;32.48;36.88;94724.66;4987170;28;20153;-79
2023/07/30 05:35:54;;;;;;;4.93;3.13;;;;;;;33.06;36.79;94750.19;4988713;28;20686;-78
2023/07/30 05:38:19;;;;;;;7.70;4.53;;;;;;;33.23;35.39;94732.66;4989890;28;20172;-78
2023/07/30 05:40:44;;;;;;;6.30;3.03;;;;;;;33.71;35.82;94753.16;4995870;28;20165;-78
2023/07/30 05:43:10;;;;;;;4.50;2.97;;;;;;;33.74;34.44;94744.25;4980012;28;20657;-78
2023/07/30 05:45:35;;;;;;;6.80;4.40;;;;;;;34.17;34.16;94748.56;4993486;28;20231;-78
2023/07/30 05:48:01;;;;;;;6.43;3.00;;;;;;;34.55;33.63;94755.13;4993841;28;20211;-78
2023/07/30 05:50:26;;;;;;;5.80;3.03;;;;;;;34.63;32.21;94743.13;4999359;28;20287;-78
2023/07/30 05:52:51;;;;;;;5.38;2.78;;;;;;;34.52;32.10;94733.97;4999541;28;20250;-80
2023/07/30 05:55:17;;;;;;;7.63;3.33;;;;;;;33.96;32.75;94745.47;4992584;28;20169;-80
2023/07/30 05:57:42;;;;;;;2.95;2.63;;;;;;;33.90;34.23;94741.47;4988420;28;20173;-79
2023/07/30 06:00:08;;;;;;;5.10;3.78;;;;;;;34.36;32.91;94756.75;4989650;28;20579;-78
2023/07/30 06:02:33;;;;;;;5.38;3.00;;;;;;;34.18;32.97;94735.69;4989539;28;20268;-78
2023/07/30 06:04:59;;;;;;;7.53;3.40;;;;;;;34.17;32.15;94764.97;4992197;28;20264;-77
2023/07/30 06:07:24;;;;;;;6.60;3.40;;;;;;;33.49;34.48;94740.22;4987232;28;20209;-78
2023/07/30 06:09:50;;;;;;;4.68;3.20;;;;;;;33.50;34.99;94763.66;4997085;28;20176;-75
2023/07/30 06:12:15;;;;;;;6.13;3.65;;;;;;;33.61;34.93;94742.81;4988334;28;20189;-76
2023/07/30 06:14:40;;;;;;;6.32;4.07;;;;;;;33.59;34.13;94758.75;4983205;28;20618;-76
2023/07/30 06:17:06;;;;;;;10.35;3.70;;;;;;;33.54;35.09;94742.69;4976716;28;20702;-77
2023/07/30 06:19:31;;;;;;;7.60;3.42;;;;;;;33.30;35.28;94758.16;4993017;28;20178;-80
2023/07/30 06:21:57;;;;;;;6.00;3.45;;;;;;;33.26;35.27;94757.31;4982101;28;20197;-79
2023/07/30 06:24:22;;;;;;;7.57;3.95;;;;;;;33.40;35.29;94756.00;4986575;28;20301;-76
2023/07/30 06:26:47;;;;;;;3.53;3.00;;;;;;;33.27;34.49;94737.06;4986704;28;20285;-80
2023/07/30 06:29:13;;;;;;;3.90;2.63;;;;;;;33.30;35.40;94760.09;4988493;28;20180;-80
2023/07/30 06:31:38;;;;;;;8.10;2.70;;;;;;;33.26;34.34;94740.13;4984257;28;20680;-80
2023/07/30 06:34:04;;;;;;;4.45;3.50;;;;;;;33.31;33.62;94737.13;4987529;28;20200;-82
2023/07/30 06:36:30;;;;;;;4.97;2.85;;;;;;;33.29;34.93;94753.09;4991256;28;20187;-79
2023/07/30 06:38:55;;;;;;;4.18;2.75;;;;;;;33.32;35.33;94752.34;4988055;28;20181;-79
2023/07/30 06:41:21;;;;;;;4.47;2.58;;;;;;;32.89;34.27;94740.47;4969221;28;20178;-80
2023/07/30 06:43:47;;;;;;;5.63;3.05;;;;;;;32.63;34.24;94720.34;4966296;28;20638;-80
2023/07/30 06:46:12;;;;;;;3.60;2.63;;;;;;;32.10;35.12;94734.19;4967231;28;20189;-78
2023/07/30 06:48:37;;;;;;;3.53;2.80;;;;;;;31.61;37.25;94727.41;4979376;28;20174;-78
2023/07/30 06:51:06;;;;;;;3.47;2.70;;;;;;;31.76;36.56;94727.47;4967900;28;20181;-78
2023/07/30 06:53:31;;;;;;;6.03;2.80;;;;;;;31.90;37.99;94729.78;4981571;28;20211;-79
2023/07/30 06:55:56;;;;;;;3.95;3.08;;;;;;;31.83;36.77;94718.69;4985387;28;20181;-79
2023/07/30 06:58:22;;;;;;;3.50;2.63;;;;;;;31.75;37.08;94725.88;4984669;28;20602;-80
2023/07/30 07:00:47;;;;;;;5.28;3.42;;;;;;;31.10;38.13;94699.91;4986078;28;20173;-79
2023/07/30 07:03:12;;;;;;;3.25;2.70;;;;;;;31.44;38.56;94723.84;4985661;28;20652;-80
2023/07/30 07:05:38;;;;;;;4.20;2.95;;;;;;;31.73;38.52;94717.28;4984586;28;20173;-80
2023/07/30 07:08:03;;;;;;;7.05;3.20;;;;;;;32.02;37.42;94713.38;4969778;28;20244;-79
2023/07/30 07:10:29;;;;;;;3.03;2.72;;;;;;;32.04;36.17;94708.38;4965551;28;20174;-80
2023/07/30 07:12:54;;;;;;;4.32;2.83;;;;;;;32.19;36.91;94709.53;4985924;28;20181;-80
2023/07/30 07:15:19;;;;;;;4.47;3.35;;;;;;;32.05;36.03;94687.34;4986088;28;20161;-80
2023/07/30 07:17:45;;;;;;;5.00;2.70;;;;;;;31.72;37.01;94693.13;4985909;28;20173;-80
2023/07/30 07:20:11;;;;;;;3.60;2.65;;;;;;;31.78;38.39;94700.69;4964826;28;20176;-80
2023/07/30 07:22:36;;;;;;;8.77;3.38;;;;;;;31.97;37.63;94682.88;4984567;28;20169;-81
2023/07/30 07:25:02;;;;;;;5.90;3.05;;;;;;;32.25;37.31;94699.97;4981681;28;20200;-80
2023/07/30 07:27:27;;;;;;;4.22;3.50;;;;;;;31.97;37.56;94663.81;4980081;28;20192;-80
2023/07/30 07:29:53;;;;;;;6.95;3.15;;;;;;;31.75;38.54;94687.75;4984714;28;20651;-80
2023/07/30 07:32:18;;;;;;;3.30;2.85;;;;;;;31.99;39.34;94686.06;4981164;28;20264;-80
2023/07/30 07:34:48;;;;;;;4.45;3.15;;;;;;;32.52;36.99;94676.47;4982683;28;20265;-80
2023/07/30 07:37:15;;;;;;;3.33;2.70;;;;;;;32.92;37.87;94695.31;4991238;28;20235;-81
2023/07/30 07:39:43;;;;;;;4.28;2.85;;;;;;;33.20;33.29;94674.09;4981776;28;20232;-80
2023/07/30 07:42:09;;;;;;;3.67;2.70;;;;;;;33.08;33.52;94692.53;4978588;28;20182;-81
2023/07/30 07:44:35;;;;;;;2.58;2.35;;;;;;;32.87;34.75;94692.84;4982900;28;20257;-81
2023/07/30 07:47:00;;;;;;;10.25;2.97;;;;;;;32.75;33.72;94693.00;4984115;28;20186;-79
2023/07/30 07:49:25;;;;;;;4.70;2.70;;;;;;;32.84;34.41;94667.09;4984866;28;20232;-82
2023/07/30 07:51:51;;;;;;;6.10;2.40;;;;;;;32.92;33.93;94681.69;4986169;28;20999;-82
2023/07/30 07:54:16;;;;;;;3.72;2.55;;;;;;;33.08;35.18;94682.41;4965941;28;20257;-84
2023/07/30 07:56:41;;;;;;;4.70;3.22;;;;;;;33.50;33.41;94668.88;4986349;28;20605;-80
2023/07/30 07:59:07;;;;;;;2.85;2.40;;;;;;;33.58;32.81;94676.03;4969005;28;20169;-81
2023/07/30 08:01:32;;;;;;;2.97;2.63;;;;;;;33.81;31.91;94665.19;4982102;28;20177;-82
2023/07/30 08:03:58;;;;;;;4.28;3.50;;;;;;;33.97;31.54;94679.53;4981856;28;20217;-82
2023/07/30 08:06:23;;;;;;;6.53;3.22;;;;;;;34.21;32.24;94677.56;4985064;28;20169;-80
2023/07/30 08:08:49;;;;;;;4.47;2.65;;;;;;;34.34;31.72;94655.16;4984710;28;20549;-82
2023/07/30 08:11:14;;;;;;;4.88;2.78;;;;;;;34.10;30.18;94677.38;4981347;28;20753;-79
2023/07/30 08:13:40;;;;;;;4.55;3.40;;;;;;;33.74;30.84;94670.50;4986636;28;20625;-78
2023/07/30 08:16:05;;;;;;;3.17;2.67;;;;;;;33.32;31.51;94663.06;4982781;28;20669;-77
2023/07/30 08:18:31;;;;;;;4.82;2.50;;;;;;;33.53;32.45;94657.22;4977375;28;20657;-79
2023/07/30 08:20:56;;;;;;;4.03;3.03;;;;;;;33.02;31.98;94661.22;4984376;28;20181;-78
2023/07/30 08:23:21;;;;;;;3.42;3.05;;;;;;;32.90;35.14;94660.22;4983344;28;20189;-83
2023/07/30 08:25:47;;;;;;;9.73;4.72;;;;;;;33.01;31.80;94655.00;4984831;28;20172;-79
2023/07/30 08:28:12;;;;;;;3.88;2.88;;;;;;;33.37;32.13;94647.53;4980506;28;20178;-80
2023/07/30 08:30:38;;;;;;;3.65;3.08;;;;;;;33.50;31.15;94652.47;4984507;28;20173;-79
2023/07/30 08:33:03;;;;;;;5.32;2.67;;;;;;;33.01;32.23;94644.06;4984128;28;20165;-80
2023/07/30 08:35:29;;;;;;;4.07;3.08;;;;;;;33.17;33.75;94639.34;4983140;28;20177;-82
2023/07/30 08:37:55;;;;;;;4.68;2.92;;;;;;;33.62;31.35;94635.16;4982006;28;20180;-81
2023/07/30 08:40:23;;;;;;;7.95;4.45;;;;;;;33.56;31.48;94631.91;4982396;28;20553;-80
2023/07/30 08:42:50;;;;;;;3.15;2.85;;;;;;;33.80;31.84;94627.31;4988487;28;20181;-79
2023/07/30 08:45:16;;;;;;;4.50;3.67;;;;;;;33.91;30.98;94641.91;4980626;28;20169;-78
2023/07/30 08:47:42;;;;;;;3.97;3.03;;;;;;;33.84;30.61;94628.94;4982320;28;20178;-80
2023/07/30 08:50:07;;;;;;;3.80;3.08;;;;;;;33.85;31.57;94627.00;4982422;28;20219;-79
2023/07/30 08:52:35;;;;;;;8.65;2.88;;;;;;;33.74;30.56;94624.06;4979278;28;20173;-78
2023/07/30 08:55:02;;;;;;;4.05;3.00;;;;;;;33.64;30.90;94621.94;4981356;28;20177;-83
2023/07/30 08:57:29;;;;;;;6.53;3.15;;;;;;;34.04;31.58;94637.84;4982718;28;20166;-81
2023/07/30 09:00:02;;;;;;;6.70;3.13;;;;;;;34.30;31.90;94626.19;4982116;28;20268;-79
2023/07/30 09:02:39;;;;;;;7.10;4.38;;;;;;;34.61;31.61;94631.34;4980621;28;20187;-79
2023/07/30 09:05:05;;;;;;;4.55;3.30;;;;;;;34.79;31.82;94623.41;4981521;28;20193;-81
2023/07/30 09:07:31;;;;;;;5.75;2.92;;;;;;;34.45;29.21;94619.78;4984193;28;20273;-80
2023/07/30 09:09:57;;;;;;;8.70;3.83;;;;;;;34.56;31.16;94628.94;4961069;28;20260;-81
2023/07/30 09:12:35;;;;;;;3.53;3.15;;;;;;;34.17;29.45;94622.03;4975866;28;20208;-79
2023/07/30 09:15:05;;;;;;;3.17;2.88;;;;;;;33.98;28.75;94620.19;4981062;28;20711;-80
2023/07/30 09:17:31;;;;;;;5.03;2.80;;;;;;;33.82;31.06;94625.00;4985944;28;20178;-78
2023/07/30 09:19:59;;;;;;;5.45;2.40;;;;;;;33.67;29.96;94602.06;4987044;28;20184;-79
2023/07/30 09:22:28;;;;;;;4.63;3.00;;;;;;;33.85;30.00;94616.84;4981750;28;20193;-80
2023/07/30 09:24:55;;;;;;;3.78;2.63;;;;;;;33.96;29.59;94623.28;4979052;28;20205;-81
2023/07/30 09:27:23;;;;;;;5.03;3.33;;;;;;;33.66;29.89;94612.19;4982079;28;20176;-79
2023/07/30 09:29:56;;;;;;;4.22;2.67;;;;;;;33.51;28.78;94618.56;4982359;28;20213;-82
2023/07/30 09:32:28;;;;;;;3.08;2.28;;;;;;;33.45;28.06;94614.56;4985654;28;20177;-80
2023/07/30 09:34:54;;;;;;;2.88;2.30;;;;;;;33.50;29.54;94605.25;4982112;28;20165;-80
2023/07/30 09:37:20;;;;;;;3.83;2.63;;;;;;;33.58;28.10;94604.25;4986487;28;20178;-82
2023/07/30 09:39:48;;;;;;;4.65;2.75;;;;;;;33.56;27.86;94592.88;4973842;28;20265;-80
2023/07/30 09:42:14;;;;;;;3.10;2.28;;;;;;;33.65;28.79;94602.41;4982414;28;20641;-80
2023/07/30 09:44:39;;;;;;;3.42;2.40;;;;;;;33.66;28.30;94600.47;4976816;28;20240;-81
2023/07/30 09:47:09;;;;;;;8.25;2.97;;;;;;;33.70;29.31;94598.63;4988042;28;20664;-80
2023/07/30 09:49:35;;;;;;;4.88;3.20;;;;;;;33.60;29.04;94577.34;4979170;28;20229;-81
2023/07/30 09:52:03;;;;;;;4.03;2.90;;;;;;;33.66;28.02;94592.28;4963937;28;20184;-79
2023/07/30 09:54:29;;;;;;;3.08;2.70;;;;;;;33.18;29.83;94582.81;4982054;28;20219;-79
2023/07/30 09:56:54;;;;;;;4.55;3.13;;;;;;;32.65;29.52;94548.97;4981821;28;20656;-80
2023/07/30 09:59:20;;;;;;;4.57;3.70;;;;;;;32.72;30.36;94581.88;4981094;28;20170;-80
2023/07/30 10:01:49;;;;;;;3.72;2.88;;;;;;;32.28;30.58;94576.59;4978954;28;20192;-81
2023/07/30 10:04:18;;;;;;;5.20;4.20;;;;;;;32.31;30.38;94584.09;4962933;28;20207;-80
2023/07/30 10:06:58;;;;;;;3.85;2.92;;;;;;;32.49;32.89;94574.38;4984457;28;20189;-81
2023/07/30 10:09:27;;;;;;;3.25;2.55;;;;;;;32.78;31.20;94564.84;4980247;28;20177;-82
2023/07/30 10:11:53;;;;;;;4.18;3.28;;;;;;;33.00;30.41;94568.03;4979337;28;20177;-81
2023/07/30 10:14:22;;;;;;;4.07;2.65;;;;;;;33.20;30.58;94559.47;4981261;28;20182;-82
2023/07/30 10:16:52;;;;;;;3.15;2.45;;;;;;;33.26;29.36;94562.72;4962504;28;20169;-79
2023/07/30 10:19:22;;;;;;;3.67;2.97;;;;;;;33.09;29.23;94536.63;4989368;28;20614;-78
2023/07/30 10:21:48;;;;;;;3.65;2.63;;;;;;;33.16;29.59;94553.16;4986438;28;20180;-79
2023/07/30 10:24:13;;;;;;;3.63;2.65;;;;;;;32.85;28.92;94521.38;4987940;28;20194;-80
2023/07/30 10:26:39;;;;;;;3.40;2.55;;;;;;;32.80;30.07;94534.50;4988531;28;20162;-80
2023/07/30 10:29:34;;;;;;;4.75;2.80;;;;;;;32.97;30.22;94543.03;4969971;28;20632;-80
2023/07/30 10:32:00;;;;;;;8.77;3.63;;;;;;;33.02;31.38;94541.97;4982947;28;20213;-80
2023/07/30 10:34:27;;;;;;;3.55;3.00;;;;;;;33.08;30.16;94539.72;4989542;28;20637;-77
2023/07/30 10:36:55;;;;;;;7.00;2.40;;;;;;;32.98;28.67;94527.47;4988653;28;20180;-78
2023/07/30 10:39:27;;;;;;;5.10;3.28;;;;;;;32.67;29.19;94531.13;4980363;28;20206;-76
2023/07/30 10:41:57;;;;;;;3.67;2.83;;;;;;;32.56;29.88;94530.88;4989721;28;20173;-77
2023/07/30 10:44:31;;;;;;;6.40;3.35;;;;;;;32.49;30.20;94525.28;4989842;28;20192;-77
2023/07/30 10:46:58;;;;;;;3.78;2.72;;;;;;;32.23;31.28;94523.19;4986199;28;20369;-79
2023/07/30 10:49:24;;;;;;;4.57;2.63;;;;;;;32.21;31.39;94502.88;4983243;28;20303;-78
2023/07/30 10:51:54;;;;;;;4.13;2.60;;;;;;;32.24;29.78;94494.00;4980335;28;20225;-79
2023/07/30 10:54:20;;;;;;;3.45;3.15;;;;;;;32.36;32.09;94507.47;4983839;28;21564;-78
2023/07/30 10:56:46;;;;;;;3.53;2.92;;;;;;;32.44;30.53;94500.22;4984282;28;20181;-77
2023/07/30 10:59:12;;;;;;;5.18;2.60;;;;;;;32.48;30.09;94493.72;4967481;28;20175;-82
2023/07/30 11:01:39;;;;;;;3.17;2.88;;;;;;;32.58;30.13;94495.09;4988753;28;20169;-82
2023/07/30 11:04:14;;;;;;;4.40;3.13;;;;;;;32.43;29.61;94485.06;4988724;28;20221;-81
2023/07/30 11:06:49;;;;;;;5.20;2.95;;;;;;;32.43;29.38;94487.78;4986073;28;20199;-80
2023/07/30 11:09:32;;;;;;;4.03;3.05;;;;;;;32.39;29.60;94490.41;4983728;28;20649;-82
2023/07/30 11:11:58;;;;;;;4.63;3.20;;;;;;;32.40;30.43;94483.81;4986366;28;20240;-81
2023/07/30 11:14:27;;;;;;;3.17;2.85;;;;;;;32.39;29.01;94481.44;4982853;28;20575;-82
2023/07/30 11:16:59;;;;;;;5.93;2.95;;;;;;;32.01;29.91;94446.75;4984980;28;20184;-82
2023/07/30 11:19:26;;;;;;;6.40;3.20;;;;;;;32.26;30.05;94469.13;4959483;28;20173;-81
2023/07/30 11:21:53;;;;;;;6.93;3.35;;;;;;;32.27;30.33;94446.94;4985907;28;20166;-84
2023/07/30 11:24:20;;;;;;;4.60;3.05;;;;;;;32.32;29.91;94448.59;4982957;28;20197;-83
2023/07/30 11:26:58;;;;;;;6.25;2.97;;;;;;;32.49;29.37;94462.59;4984044;28;20181;-82